Time;durP1;ratioP1;P1;durP2;ratioP2;P2;SDS_P1;SDS_P2;PMS_P1;PMS_P2;Temp;Humidity;BMP_temperature;BMP_pressure;BME280_temperature;BME280_humidity;BME280_pressure;Samples;Min_cycle;Max_cycle;Signal;HPM_P1;HPM_P2
2023/09/02 00:02:14;;;;;;;59.67;34.33;;;;;;;;;;5016331;28;20197;-73
2023/09/02 00:04:39;;;;;;;35.05;29.83;;;;;;;;;;5022062;28;20201;-73
2023/09/02 00:07:05;;;;;;;44.45;33.42;;;;;;;;;;5025180;28;20696;-73
2023/09/02 00:09:30;;;;;;;39.83;31.63;;;;;;;;;;5009590;28;20205;-73
2023/09/02 00:11:55;;;;;;;38.28;30.98;;;;;;;;;;5016010;28;20195;-73
2023/09/02 00:14:21;;;;;;;44.67;32.38;;;;;;;;;;5025789;28;20326;-73
2023/09/02 00:16:46;;;;;;;45.25;32.67;;;;;;;;;;5015578;28;20269;-73
2023/09/02 00:19:12;;;;;;;40.28;30.75;;;;;;;;;;5015549;28;20190;-73
2023/09/02 00:21:37;;;;;;;58.53;30.27;;;;;;;;;;5030657;28;20190;-73
2023/09/02 00:24:07;;;;;;;36.95;29.60;;;;;;;;;;5028390;28;20263;-72
2023/09/02 00:26:32;;;;;;;38.30;30.10;;;;;;;;;;5025701;28;20189;-73
2023/09/02 00:28:59;;;;;;;40.80;30.42;;;;;;;;;;5023287;28;20217;-73
2023/09/02 00:31:24;;;;;;;43.65;31.80;;;;;;;;;;5025963;28;20251;-73
2023/09/02 00:33:50;;;;;;;38.22;30.65;;;;;;;;;;5026416;28;20198;-72
2023/09/02 00:36:16;;;;;;;53.05;31.13;;;;;;;;;;5018416;28;20193;-72
2023/09/02 00:38:41;;;;;;;40.85;31.00;;;;;;;;;;5027936;28;20336;-72
2023/09/02 00:41:12;;;;;;;87.03;32.92;;;;;;;;;;5023920;28;20277;-72
2023/09/02 00:43:39;;;;;;;50.35;31.10;;;;;;;;;;5024921;28;20194;-73
2023/09/02 00:46:05;;;;;;;34.95;27.10;;;;;;;;;;5027227;28;20244;-73
2023/09/02 00:48:31;;;;;;;33.60;26.90;;;;;;;;;;5028922;28;20300;-73
2023/09/02 00:50:57;;;;;;;32.92;26.52;;;;;;;;;;5023998;28;20289;-72
2023/09/02 00:53:24;;;;;;;36.33;28.70;;;;;;;;;;5023407;28;20197;-72
2023/09/02 00:55:50;;;;;;;34.95;26.83;;;;;;;;;;5020469;28;20216;-72
2023/09/02 00:58:16;;;;;;;103.35;28.13;;;;;;;;;;5012444;28;20187;-72
2023/09/02 01:00:41;;;;;;;72.38;28.20;;;;;;;;;;5022015;28;20198;-72
2023/09/02 01:03:07;;;;;;;89.05;27.45;;;;;;;;;;5014279;28;20183;-72
2023/09/02 01:05:34;;;;;;;91.03;30.25;;;;;;;;;;5029406;28;20200;-72
2023/09/02 01:07:59;;;;;;;36.72;30.38;;;;;;;;;;5027041;28;20619;-73
2023/09/02 01:10:25;;;;;;;41.35;28.85;;;;;;;;;;5012720;28;20233;-72
2023/09/02 01:12:51;;;;;;;35.08;27.83;;;;;;;;;;5019526;28;20194;-72
2023/09/02 01:15:16;;;;;;;93.72;31.25;;;;;;;;;;5018128;28;20572;-72
2023/09/02 01:17:42;;;;;;;35.38;25.45;;;;;;;;;;5020711;28;20294;-72
2023/09/02 01:20:11;;;;;;;36.88;28.52;;;;;;;;;;5028201;28;20281;-72
2023/09/02 01:22:56;;;;;;;41.60;30.52;;;;;;;;;;5023599;28;20182;-72
2023/09/02 01:25:48;;;;;;;46.83;32.28;;;;;;;;;;5028553;28;20197;-72
2023/09/02 01:28:25;;;;;;;39.95;30.70;;;;;;;;;;5011024;28;20218;-73
2023/09/02 01:30:54;;;;;;;41.25;30.95;;;;;;;;;;5019130;28;20270;-72
2023/09/02 01:33:21;;;;;;;45.47;30.20;;;;;;;;;;5019317;28;20190;-72
2023/09/02 01:35:49;;;;;;;38.60;29.80;;;;;;;;;;5014125;28;20199;-72
2023/09/02 01:38:15;;;;;;;34.22;27.52;;;;;;;;;;5027452;28;20300;-72
2023/09/02 01:40:43;;;;;;;41.15;26.95;;;;;;;;;;5015526;28;20285;-72
2023/09/02 01:43:10;;;;;;;29.30;23.90;;;;;;;;;;5015676;28;20647;-72
2023/09/02 01:45:36;;;;;;;35.80;27.13;;;;;;;;;;5027016;28;20245;-72
2023/09/02 01:48:03;;;;;;;40.53;26.75;;;;;;;;;;5027247;28;20705;-72
2023/09/02 01:50:30;;;;;;;42.70;30.77;;;;;;;;;;5015064;28;20243;-72
2023/09/02 01:52:57;;;;;;;49.20;32.95;;;;;;;;;;5026140;28;20194;-72
2023/09/02 01:55:24;;;;;;;51.30;34.45;;;;;;;;;;5027249;28;20212;-71
2023/09/02 01:57:49;;;;;;;67.13;37.67;;;;;;;;;;5005075;28;20181;-71
2023/09/02 02:00:15;;;;;;;53.22;38.45;;;;;;;;;;5024394;28;20645;-72
2023/09/02 02:02:42;;;;;;;60.45;38.00;;;;;;;;;;5023328;28;20613;-72
2023/09/02 02:05:12;;;;;;;64.28;38.78;;;;;;;;;;5025425;28;20190;-72
2023/09/02 02:07:41;;;;;;;60.17;39.45;;;;;;;;;;5026223;28;20377;-73
2023/09/02 02:10:11;;;;;;;65.30;41.67;;;;;;;;;;5026850;28;20186;-72
2023/09/02 02:12:40;;;;;;;68.78;42.03;;;;;;;;;;5022405;28;20209;-72
2023/09/02 02:15:10;;;;;;;73.75;44.13;;;;;;;;;;5027338;28;20205;-72
2023/09/02 02:17:36;;;;;;;71.50;43.47;;;;;;;;;;5017894;28;20207;-72
2023/09/02 02:20:02;;;;;;;71.82;43.17;;;;;;;;;;5022212;28;20561;-72
2023/09/02 02:22:27;;;;;;;76.10;44.97;;;;;;;;;;5021410;28;20202;-72
2023/09/02 02:24:52;;;;;;;69.45;43.83;;;;;;;;;;5021631;28;20183;-72
2023/09/02 02:27:18;;;;;;;75.60;43.83;;;;;;;;;;5018610;28;22424;-72
2023/09/02 02:29:43;;;;;;;63.17;41.75;;;;;;;;;;5027354;28;20520;-72
2023/09/02 02:32:08;;;;;;;63.40;41.03;;;;;;;;;;5000882;28;20198;-72
2023/09/02 02:34:34;;;;;;;73.38;44.75;;;;;;;;;;5014614;28;20214;-73
2023/09/02 02:37:00;;;;;;;72.45;43.80;;;;;;;;;;5020823;28;20182;-73
2023/09/02 02:39:26;;;;;;;73.18;44.25;;;;;;;;;;5029603;28;20190;-72
2023/09/02 02:41:51;;;;;;;71.57;43.05;;;;;;;;;;5023597;28;20565;-73
2023/09/02 02:44:16;;;;;;;66.47;41.75;;;;;;;;;;5026097;28;20259;-73
2023/09/02 02:46:42;;;;;;;66.35;42.10;;;;;;;;;;5025765;28;20190;-74
2023/09/02 02:49:08;;;;;;;77.00;43.60;;;;;;;;;;5030948;28;20198;-72
2023/09/02 02:51:33;;;;;;;70.43;42.72;;;;;;;;;;5024200;28;20253;-72
2023/09/02 02:53:59;;;;;;;73.53;42.60;;;;;;;;;;5025193;28;20189;-71
2023/09/02 02:56:24;;;;;;;62.65;40.05;;;;;;;;;;5026171;28;20189;-72
2023/09/02 02:58:49;;;;;;;65.03;39.45;;;;;;;;;;5024159;28;20288;-71
2023/09/02 03:01:15;;;;;;;56.83;38.90;;;;;;;;;;5027902;28;20186;-71
2023/09/02 03:03:43;;;;;;;106.90;42.63;;;;;;;;;;5020592;28;20402;-72
2023/09/02 03:06:08;;;;;;;48.70;35.85;;;;;;;;;;5029906;28;20228;-72
2023/09/02 03:08:34;;;;;;;61.03;38.42;;;;;;;;;;5028690;28;20226;-72
2023/09/02 03:11:03;;;;;;;62.13;40.20;;;;;;;;;;5023022;28;20415;-72
2023/09/02 03:13:33;;;;;;;56.03;38.78;;;;;;;;;;5028326;28;20564;-72
2023/09/02 03:15:59;;;;;;;69.65;42.20;;;;;;;;;;5024704;28;20186;-73
2023/09/02 03:18:25;;;;;;;64.57;38.55;;;;;;;;;;5025897;28;20214;-72
2023/09/02 03:20:50;;;;;;;59.05;37.80;;;;;;;;;;5030826;28;20182;-73
2023/09/02 03:23:16;;;;;;;64.03;40.85;;;;;;;;;;5022746;28;20556;-72
2023/09/02 03:25:41;;;;;;;71.53;42.08;;;;;;;;;;5027847;28;20204;-72
2023/09/02 03:28:07;;;;;;;76.50;41.72;;;;;;;;;;5023048;28;20541;-72
2023/09/02 03:30:32;;;;;;;64.85;39.85;;;;;;;;;;5028821;28;20311;-74
2023/09/02 03:32:58;;;;;;;60.20;39.67;;;;;;;;;;5022577;28;20688;-73
2023/09/02 03:35:24;;;;;;;55.90;39.28;;;;;;;;;;5025299;28;20186;-73
2023/09/02 03:37:49;;;;;;;57.35;37.25;;;;;;;;;;5025550;28;20198;-72
2023/09/02 03:40:15;;;;;;;60.40;39.47;;;;;;;;;;5028070;28;20192;-73
2023/09/02 03:42:41;;;;;;;60.17;39.35;;;;;;;;;;5027205;28;20190;-73
2023/09/02 03:45:09;;;;;;;56.55;38.78;;;;;;;;;;5030396;28;20221;-72
2023/09/02 03:47:35;;;;;;;61.60;39.72;;;;;;;;;;5030272;28;20218;-73
2023/09/02 03:50:00;;;;;;;58.35;39.63;;;;;;;;;;5029089;28;20240;-73
2023/09/02 03:52:25;;;;;;;62.03;39.88;;;;;;;;;;5021860;28;20306;-72
2023/09/02 03:54:51;;;;;;;60.13;39.05;;;;;;;;;;5028622;28;20204;-72
2023/09/02 03:57:16;;;;;;;59.65;39.97;;;;;;;;;;5028565;28;20277;-72
2023/09/02 03:59:42;;;;;;;56.05;38.83;;;;;;;;;;5026846;28;20193;-73
2023/09/02 04:02:07;;;;;;;57.55;39.00;;;;;;;;;;5020778;28;20386;-72
2023/09/02 04:04:33;;;;;;;57.08;37.92;;;;;;;;;;5024913;28;20203;-73
2023/09/02 04:06:58;;;;;;;61.53;38.90;;;;;;;;;;5028132;28;20195;-72
2023/09/02 04:09:24;;;;;;;52.42;36.90;;;;;;;;;;5029768;28;20661;-72
2023/09/02 04:11:49;;;;;;;49.95;35.33;;;;;;;;;;5028965;28;20220;-72
2023/09/02 04:14:14;;;;;;;57.35;36.75;;;;;;;;;;5029782;28;20206;-72
2023/09/02 04:16:40;;;;;;;67.63;40.22;;;;;;;;;;5023836;28;20497;-72
2023/09/02 04:19:05;;;;;;;63.63;39.72;;;;;;;;;;5024068;28;20240;-72
2023/09/02 04:21:31;;;;;;;64.00;40.50;;;;;;;;;;5019523;28;20265;-72
2023/09/02 04:23:56;;;;;;;62.85;39.35;;;;;;;;;;5016961;28;20197;-72
2023/09/02 04:26:22;;;;;;;60.53;38.47;;;;;;;;;;5012468;28;20188;-72
2023/09/02 04:28:48;;;;;;;58.30;37.25;;;;;;;;;;5026514;28;20347;-72
2023/09/02 04:31:14;;;;;;;61.10;37.03;;;;;;;;;;5025509;28;20566;-72
2023/09/02 04:33:39;;;;;;;53.92;35.33;;;;;;;;;;5022864;28;20259;-72
2023/09/02 04:36:04;;;;;;;55.75;35.97;;;;;;;;;;5016981;28;20216;-72
2023/09/02 04:38:31;;;;;;;50.72;34.35;;;;;;;;;;5027935;28;20500;-72
2023/09/02 04:40:56;;;;;;;52.25;36.30;;;;;;;;;;5033930;28;20245;-72
2023/09/02 04:43:22;;;;;;;59.50;38.75;;;;;;;;;;5025365;28;20314;-72
2023/09/02 04:45:48;;;;;;;58.63;38.35;;;;;;;;;;5021239;28;20736;-72
2023/09/02 04:48:15;;;;;;;80.88;37.78;;;;;;;;;;5021071;28;20236;-72
2023/09/02 04:50:42;;;;;;;74.95;37.75;;;;;;;;;;5004356;28;20320;-72
2023/09/02 04:53:07;;;;;;;73.90;39.08;;;;;;;;;;5007648;28;20682;-72
2023/09/02 04:55:33;;;;;;;61.28;37.38;;;;;;;;;;5023580;28;20467;-72
2023/09/02 04:57:59;;;;;;;57.15;36.50;;;;;;;;;;5025388;28;20244;-73
2023/09/02 05:00:28;;;;;;;65.10;38.00;;;;;;;;;;5028425;28;20190;-73
2023/09/02 05:02:54;;;;;;;75.13;41.53;;;;;;;;;;5007719;28;20189;-72
2023/09/02 05:05:21;;;;;;;70.03;40.55;;;;;;;;;;5028131;28;20190;-72
2023/09/02 05:07:47;;;;;;;65.35;40.17;;;;;;;;;;5023309;28;20237;-72
2023/09/02 05:10:14;;;;;;;79.05;41.22;;;;;;;;;;5028153;28;20234;-72
2023/09/02 05:12:40;;;;;;;74.40;41.95;;;;;;;;;;5021977;28;20183;-72
2023/09/02 05:15:06;;;;;;;75.00;41.80;;;;;;;;;;5019876;28;20190;-72
2023/09/02 05:17:32;;;;;;;66.80;40.55;;;;;;;;;;5019267;28;20238;-72
2023/09/02 05:19:58;;;;;;;71.05;41.13;;;;;;;;;;5021699;28;20200;-72
2023/09/02 05:22:23;;;;;;;41.40;29.48;;;;;;;;;;5027561;28;20190;-72
2023/09/02 05:24:49;;;;;;;72.68;41.15;;;;;;;;;;5021397;28;20193;-72
2023/09/02 05:27:14;;;;;;;64.93;38.97;;;;;;;;;;5021333;28;20216;-72
2023/09/02 05:29:40;;;;;;;67.85;39.95;;;;;;;;;;5024869;28;20190;-72
2023/09/02 05:32:05;;;;;;;64.68;38.65;;;;;;;;;;5024581;28;20579;-73
2023/09/02 05:34:30;;;;;;;62.80;38.30;;;;;;;;;;5025983;28;20194;-72
2023/09/02 05:36:56;;;;;;;57.70;37.97;;;;;;;;;;5021586;28;20542;-72
2023/09/02 05:39:21;;;;;;;64.35;38.38;;;;;;;;;;5004148;28;20549;-72
2023/09/02 05:41:47;;;;;;;60.95;37.10;;;;;;;;;;5027222;28;20190;-72
2023/09/02 05:44:12;;;;;;;56.22;37.33;;;;;;;;;;5025089;28;20710;-72
2023/09/02 05:46:38;;;;;;;51.38;36.28;;;;;;;;;;5025406;28;20237;-73
2023/09/02 05:49:03;;;;;;;47.83;33.58;;;;;;;;;;5017253;28;20700;-72
2023/09/02 05:51:29;;;;;;;58.33;36.88;;;;;;;;;;5018884;28;20190;-72
2023/09/02 05:53:55;;;;;;;51.50;35.80;;;;;;;;;;5022752;28;20244;-72
2023/09/02 05:56:20;;;;;;;55.50;36.42;;;;;;;;;;5017849;28;20189;-72
2023/09/02 05:58:45;;;;;;;52.42;35.28;;;;;;;;;;5009942;28;20283;-73
2023/09/02 06:01:11;;;;;;;45.90;33.55;;;;;;;;;;5011619;28;20277;-73
2023/09/02 06:03:36;;;;;;;50.17;34.83;;;;;;;;;;5021278;28;20230;-72
2023/09/02 06:06:08;;;;;;;54.03;34.85;;;;;;;;;;5024661;28;20190;-72
2023/09/02 06:08:34;;;;;;;50.28;33.30;;;;;;;;;;5022920;28;20214;-72
2023/09/02 06:10:59;;;;;;;49.22;33.35;;;;;;;;;;5025739;28;20664;-72
2023/09/02 06:13:25;;;;;;;52.78;35.35;;;;;;;;;;5025572;28;20212;-73
2023/09/02 06:15:51;;;;;;;51.30;35.53;;;;;;;;;;5031379;28;20213;-71
2023/09/02 06:18:16;;;;;;;50.58;34.60;;;;;;;;;;5030885;28;20297;-71
2023/09/02 06:20:41;;;;;;;49.58;33.22;;;;;;;;;;5030696;28;20182;-73
2023/09/02 06:23:07;;;;;;;54.45;34.10;;;;;;;;;;5018984;28;20195;-71
2023/09/02 06:25:32;;;;;;;46.28;33.03;;;;;;;;;;5026075;28;20193;-72
2023/09/02 06:27:58;;;;;;;48.08;33.80;;;;;;;;;;5030384;28;20248;-72
2023/09/02 06:30:23;;;;;;;49.97;33.22;;;;;;;;;;5024148;28;20205;-73
2023/09/02 06:32:48;;;;;;;52.08;35.03;;;;;;;;;;5029683;28;20643;-72
2023/09/02 06:35:15;;;;;;;49.40;35.08;;;;;;;;;;5030186;28;20202;-72
2023/09/02 06:37:43;;;;;;;48.00;34.00;;;;;;;;;;5020690;28;20263;-72
2023/09/02 06:40:09;;;;;;;50.90;34.45;;;;;;;;;;5012166;28;20190;-72
2023/09/02 06:42:34;;;;;;;53.08;35.28;;;;;;;;;;5025155;28;20646;-72
2023/09/02 06:45:00;;;;;;;46.63;33.58;;;;;;;;;;5015528;28;20268;-73
2023/09/02 06:47:25;;;;;;;46.50;33.83;;;;;;;;;;5023660;28;20213;-72
2023/09/02 06:49:51;;;;;;;50.92;34.83;;;;;;;;;;5023852;28;20190;-72
2023/09/02 06:52:16;;;;;;;50.67;34.75;;;;;;;;;;5029857;28;20196;-72
2023/09/02 06:54:42;;;;;;;51.50;34.47;;;;;;;;;;5025001;28;20190;-72
2023/09/02 06:57:07;;;;;;;49.63;33.05;;;;;;;;;;5015591;28;20282;-72
2023/09/02 06:59:34;;;;;;;51.28;34.30;;;;;;;;;;5027561;28;20194;-72
2023/09/02 07:01:59;;;;;;;48.25;33.38;;;;;;;;;;5026559;28;20182;-72
2023/09/02 07:04:25;;;;;;;45.92;35.35;;;;;;;;;;5026626;28;20356;-72
2023/09/02 07:06:50;;;;;;;48.83;35.95;;;;;;;;;;5028319;28;20193;-72
2023/09/02 07:09:15;;;;;;;49.70;34.15;;;;;;;;;;5022452;28;20203;-73
2023/09/02 07:11:41;;;;;;;49.78;34.03;;;;;;;;;;5013737;28;20682;-72
2023/09/02 07:14:06;;;;;;;45.10;32.65;;;;;;;;;;5024502;28;20190;-72
2023/09/02 07:16:32;;;;;;;45.92;32.60;;;;;;;;;;5022151;28;20304;-73
2023/09/02 07:18:58;;;;;;;50.55;33.85;;;;;;;;;;5026127;28;20212;-73
2023/09/02 07:21:24;;;;;;;45.97;33.92;;;;;;;;;;5022631;28;20269;-73
2023/09/02 07:23:51;;;;;;;46.25;33.75;;;;;;;;;;5021506;28;20195;-74
2023/09/02 07:26:16;;;;;;;48.00;34.35;;;;;;;;;;5021337;28;20718;-72
2023/09/02 07:28:42;;;;;;;44.75;33.90;;;;;;;;;;5026698;28;20209;-72
2023/09/02 07:31:09;;;;;;;45.35;32.15;;;;;;;;;;5015782;28;20190;-72
2023/09/02 07:33:34;;;;;;;40.88;31.33;;;;;;;;;;5012437;28;20289;-71
2023/09/02 07:36:07;;;;;;;43.13;32.42;;;;;;;;;;5023583;28;20223;-72
2023/09/02 07:38:32;;;;;;;44.97;32.15;;;;;;;;;;5021708;28;20224;-71
2023/09/02 07:40:58;;;;;;;41.58;32.72;;;;;;;;;;5025863;28;20218;-71
2023/09/02 07:43:23;;;;;;;38.35;30.85;;;;;;;;;;5020730;28;20220;-71
2023/09/02 07:45:49;;;;;;;38.75;32.05;;;;;;;;;;5028294;28;20238;-71
2023/09/02 07:48:14;;;;;;;43.20;31.63;;;;;;;;;;5030730;28;20222;-71
2023/09/02 07:50:39;;;;;;;39.03;31.85;;;;;;;;;;5027909;28;20276;-71
2023/09/02 07:53:05;;;;;;;44.08;33.65;;;;;;;;;;5029660;28;20197;-71
2023/09/02 07:55:30;;;;;;;41.85;32.28;;;;;;;;;;5022389;28;20276;-71
2023/09/02 07:57:57;;;;;;;42.60;32.03;;;;;;;;;;5030399;28;20240;-71
2023/09/02 08:00:22;;;;;;;39.78;31.58;;;;;;;;;;5020206;28;20649;-71
2023/09/02 08:02:48;;;;;;;46.97;32.00;;;;;;;;;;5026812;28;20208;-71
2023/09/02 08:05:14;;;;;;;40.13;30.73;;;;;;;;;;5023240;28;20253;-72
2023/09/02 08:07:39;;;;;;;42.72;31.13;;;;;;;;;;5030167;28;20285;-72
2023/09/02 08:10:05;;;;;;;37.75;30.08;;;;;;;;;;5022759;28;20265;-72
2023/09/02 08:12:31;;;;;;;37.30;29.90;;;;;;;;;;5022339;28;20543;-71
2023/09/02 08:14:56;;;;;;;39.53;30.38;;;;;;;;;;5022493;28;20198;-71
2023/09/02 08:17:21;;;;;;;41.72;31.65;;;;;;;;;;5029864;28;20225;-71
2023/09/02 08:19:47;;;;;;;39.45;31.02;;;;;;;;;;5030270;28;20229;-71
2023/09/02 08:22:13;;;;;;;41.50;29.58;;;;;;;;;;5030171;28;20216;-72
2023/09/02 08:24:39;;;;;;;35.33;28.92;;;;;;;;;;5029822;28;20545;-71
2023/09/02 08:27:04;;;;;;;38.20;30.10;;;;;;;;;;5035676;28;20212;-71
2023/09/02 08:29:29;;;;;;;39.95;30.55;;;;;;;;;;5028834;28;20185;-71
2023/09/02 08:31:56;;;;;;;35.97;28.45;;;;;;;;;;5023008;28;20655;-71
2023/09/02 08:34:22;;;;;;;40.42;29.90;;;;;;;;;;5023083;28;20622;-71
2023/09/02 08:36:47;;;;;;;35.90;27.90;;;;;;;;;;5020041;28;20194;-71
2023/09/02 08:39:12;;;;;;;38.35;29.88;;;;;;;;;;5027600;28;20190;-72
2023/09/02 08:41:40;;;;;;;39.00;28.80;;;;;;;;;;5029906;28;20193;-71
2023/09/02 08:44:06;;;;;;;41.50;30.60;;;;;;;;;;5019940;28;20192;-71
2023/09/02 08:46:33;;;;;;;39.88;29.75;;;;;;;;;;5025451;28;20713;-71
2023/09/02 08:48:59;;;;;;;41.00;31.17;;;;;;;;;;5027458;28;20228;-71
2023/09/02 08:51:26;;;;;;;39.97;31.30;;;;;;;;;;5022152;28;20526;-72
2023/09/02 08:53:56;;;;;;;39.60;30.33;;;;;;;;;;5025510;28;20190;-73
2023/09/02 08:56:23;;;;;;;39.15;29.60;;;;;;;;;;5029499;28;20197;-72
2023/09/02 08:58:49;;;;;;;42.70;30.65;;;;;;;;;;5028312;28;20187;-71
2023/09/02 09:01:22;;;;;;;37.85;29.55;;;;;;;;;;5019213;28;20190;-71
2023/09/02 09:03:52;;;;;;;35.83;29.92;;;;;;;;;;5025280;28;20187;-72
2023/09/02 09:06:19;;;;;;;39.20;30.20;;;;;;;;;;5026055;28;20190;-71
2023/09/02 09:08:46;;;;;;;37.30;29.40;;;;;;;;;;5027136;28;20229;-71
2023/09/02 09:11:15;;;;;;;38.15;29.15;;;;;;;;;;5025300;28;20190;-71
2023/09/02 09:13:45;;;;;;;40.40;29.80;;;;;;;;;;5024484;28;20693;-71
2023/09/02 09:16:15;;;;;;;42.03;30.48;;;;;;;;;;5019853;28;20541;-72
2023/09/02 09:18:41;;;;;;;37.53;30.45;;;;;;;;;;5023235;28;20198;-71
2023/09/02 09:21:07;;;;;;;38.72;30.90;;;;;;;;;;5018892;28;20182;-72
2023/09/02 09:23:35;;;;;;;39.15;31.98;;;;;;;;;;5020040;28;20253;-72
2023/09/02 09:26:04;;;;;;;40.38;31.75;;;;;;;;;;5018464;28;20186;-71
2023/09/02 09:28:50;;;;;;;39.70;31.05;;;;;;;;;;5028123;28;20214;-71
2023/09/02 09:31:17;;;;;;;41.67;32.17;;;;;;;;;;5027877;28;20197;-72
2023/09/02 09:34:09;;;;;;;39.03;31.67;;;;;;;;;;5022393;28;20198;-71
2023/09/02 09:36:34;;;;;;;38.20;31.73;;;;;;;;;;5026168;28;20506;-71
2023/09/02 09:39:05;;;;;;;40.92;33.25;;;;;;;;;;5015597;28;20674;-72
2023/09/02 09:41:31;;;;;;;39.15;32.20;;;;;;;;;;5015475;28;20209;-72
2023/09/02 09:44:13;;;;;;;38.40;31.88;;;;;;;;;;5024853;28;20217;-72
2023/09/02 09:46:44;;;;;;;40.13;33.10;;;;;;;;;;5027302;28;20356;-71
2023/09/02 09:49:30;;;;;;;37.35;32.28;;;;;;;;;;5027476;28;20229;-72
2023/09/02 09:52:01;;;;;;;37.42;31.10;;;;;;;;;;5033473;28;20190;-72
2023/09/02 09:54:39;;;;;;;37.85;30.77;;;;;;;;;;5029751;28;20497;-71
2023/09/02 09:57:09;;;;;;;36.13;29.50;;;;;;;;;;5031101;28;20316;-72
2023/09/02 09:59:35;;;;;;;38.08;32.30;;;;;;;;;;5030102;28;20186;-72
2023/09/02 10:02:04;;;;;;;37.38;31.65;;;;;;;;;;5024087;28;20277;-73
2023/09/02 10:04:29;;;;;;;35.67;31.45;;;;;;;;;;5026378;28;20202;-72
2023/09/02 10:07:02;;;;;;;36.05;30.20;;;;;;;;;;5033020;28;20186;-72
2023/09/02 10:09:42;;;;;;;37.33;30.40;;;;;;;;;;5028157;28;20599;-72
2023/09/02 10:12:15;;;;;;;41.05;30.65;;;;;;;;;;5031614;28;20553;-72
2023/09/02 10:14:45;;;;;;;37.10;29.30;;;;;;;;;;5029121;28;20198;-72
2023/09/02 10:17:12;;;;;;;33.13;27.70;;;;;;;;;;5029112;28;20288;-72
2023/09/02 10:19:38;;;;;;;31.98;25.70;;;;;;;;;;5043424;28;20590;-72
2023/09/02 10:22:05;;;;;;;34.05;27.17;;;;;;;;;;5032260;28;20247;-72
2023/09/02 10:24:40;;;;;;;33.80;28.15;;;;;;;;;;5028653;28;20502;-72
2023/09/02 10:27:14;;;;;;;29.00;25.42;;;;;;;;;;5030668;28;20237;-72
2023/09/02 10:29:43;;;;;;;30.60;23.95;;;;;;;;;;5026661;28;20213;-72
2023/09/02 10:32:12;;;;;;;31.98;27.33;;;;;;;;;;5025211;28;20274;-72
2023/09/02 10:34:51;;;;;;;27.75;23.95;;;;;;;;;;5016205;28;20226;-72
2023/09/02 10:37:24;;;;;;;26.83;23.92;;;;;;;;;;5026506;28;20277;-73
2023/09/02 10:40:22;;;;;;;25.45;21.75;;;;;;;;;;5031645;28;20190;-73
2023/09/02 10:42:49;;;;;;;27.02;24.02;;;;;;;;;;5007921;28;20194;-73
2023/09/02 10:45:16;;;;;;;24.27;19.80;;;;;;;;;;5030379;28;20291;-73
2023/09/02 10:47:43;;;;;;;23.27;20.73;;;;;;;;;;5031632;28;20293;-73
2023/09/02 10:50:09;;;;;;;24.25;21.50;;;;;;;;;;5023902;28;20195;-73
2023/09/02 10:52:35;;;;;;;28.63;22.88;;;;;;;;;;5022121;28;20186;-73
2023/09/02 10:55:03;;;;;;;26.10;22.77;;;;;;;;;;5025212;28;20236;-72
2023/09/02 10:57:43;;;;;;;28.08;22.83;;;;;;;;;;5025480;28;20642;-73
2023/09/02 11:00:27;;;;;;;29.05;24.67;;;;;;;;;;5025440;28;20538;-72
2023/09/02 11:02:56;;;;;;;27.83;24.27;;;;;;;;;;5028237;28;20194;-73
2023/09/02 11:05:23;;;;;;;33.88;27.35;;;;;;;;;;5022706;28;20217;-72
2023/09/02 11:07:49;;;;;;;33.60;28.27;;;;;;;;;;5030416;28;20250;-72
2023/09/02 11:10:17;;;;;;;35.80;28.52;;;;;;;;;;5031484;28;20213;-72
2023/09/02 11:12:57;;;;;;;38.20;29.35;;;;;;;;;;5031430;28;20190;-73
2023/09/02 11:15:23;;;;;;;37.15;30.60;;;;;;;;;;5028778;28;20228;-72
2023/09/02 11:17:48;;;;;;;36.75;30.08;;;;;;;;;;5030517;28;20685;-72
2023/09/02 11:20:18;;;;;;;38.80;30.55;;;;;;;;;;5024256;28;20277;-72
2023/09/02 11:22:48;;;;;;;38.83;31.88;;;;;;;;;;5017073;28;20285;-73
2023/09/02 11:25:37;;;;;;;40.40;32.75;;;;;;;;;;5025399;28;20221;-72
2023/09/02 11:28:22;;;;;;;38.47;32.72;;;;;;;;;;5020301;28;20280;-72
2023/09/02 11:31:09;;;;;;;36.40;30.92;;;;;;;;;;5020429;28;20206;-73
2023/09/02 11:33:39;;;;;;;36.83;30.85;;;;;;;;;;5025462;28;20320;-72
2023/09/02 11:36:14;;;;;;;37.90;31.33;;;;;;;;;;5022856;28;20213;-72
2023/09/02 11:38:40;;;;;;;38.80;32.63;;;;;;;;;;5022043;28;20232;-72
2023/09/02 11:41:07;;;;;;;38.45;31.65;;;;;;;;;;5007407;28;20630;-72
2023/09/02 11:43:33;;;;;;;37.95;32.15;;;;;;;;;;5024835;28;20260;-73
2023/09/02 11:46:00;;;;;;;38.72;32.33;;;;;;;;;;5025598;28;20230;-73
2023/09/02 11:48:27;;;;;;;38.10;31.58;;;;;;;;;;5025693;28;20701;-73
2023/09/02 11:50:53;;;;;;;33.25;28.60;;;;;;;;;;5039958;28;20194;-73
2023/09/02 11:53:18;;;;;;;33.67;26.80;;;;;;;;;;5025719;28;20531;-73
2023/09/02 11:55:44;;;;;;;28.77;25.00;;;;;;;;;;5021606;28;20613;-73
2023/09/02 11:58:14;;;;;;;30.42;26.00;;;;;;;;;;5025139;28;20760;-73
2023/09/02 12:00:43;;;;;;;39.63;30.00;;;;;;;;;;5029092;28;20190;-73
2023/09/02 12:03:09;;;;;;;36.03;29.48;;;;;;;;;;5022331;28;20194;-73
2023/09/02 12:05:45;;;;;;;36.63;30.45;;;;;;;;;;5028836;28;20189;-73
2023/09/02 12:08:11;;;;;;;38.13;30.27;;;;;;;;;;5029937;28;20220;-73
2023/09/02 12:10:37;;;;;;;36.97;30.42;;;;;;;;;;5026756;28;20214;-73
2023/09/02 12:13:03;;;;;;;36.05;30.48;;;;;;;;;;5030561;28;20194;-73
2023/09/02 12:15:31;;;;;;;37.22;29.92;;;;;;;;;;5026765;28;20186;-73
2023/09/02 12:17:57;;;;;;;34.63;28.65;;;;;;;;;;5021547;28;20242;-73
2023/09/02 12:20:23;;;;;;;35.80;28.95;;;;;;;;;;5025853;28;20229;-73
2023/09/02 12:22:49;;;;;;;30.33;24.38;;;;;;;;;;5012333;28;20189;-74
2023/09/02 12:25:20;;;;;;;29.77;24.85;;;;;;;;;;5028467;28;20217;-73
2023/09/02 12:27:47;;;;;;;31.98;25.25;;;;;;;;;;5019402;28;20206;-72
2023/09/02 12:30:13;;;;;;;32.97;26.88;;;;;;;;;;5022288;28;20195;-73
2023/09/02 12:32:39;;;;;;;31.73;26.73;;;;;;;;;;5027629;28;20564;-73
2023/09/02 12:35:09;;;;;;;31.90;27.00;;;;;;;;;;5024145;28;20193;-73
2023/09/02 12:37:34;;;;;;;30.08;24.67;;;;;;;;;;5028288;28;20204;-73
2023/09/02 12:40:14;;;;;;;28.80;23.95;;;;;;;;;;5019883;28;20697;-73
2023/09/02 12:42:40;;;;;;;35.85;25.20;;;;;;;;;;5023018;28;20290;-75
2023/09/02 12:45:08;;;;;;;32.22;24.83;;;;;;;;;;4999758;28;20227;-74
2023/09/02 12:47:33;;;;;;;29.90;22.85;;;;;;;;;;5025960;28;20575;-74
2023/09/02 12:50:03;;;;;;;28.38;22.55;;;;;;;;;;5027188;28;20198;-74
2023/09/02 12:52:30;;;;;;;26.65;20.30;;;;;;;;;;5028273;28;20669;-74
2023/09/02 12:54:58;;;;;;;24.67;22.05;;;;;;;;;;5020821;28;20261;-73
2023/09/02 12:57:26;;;;;;;27.42;20.48;;;;;;;;;;5029802;28;20246;-74
2023/09/02 12:59:51;;;;;;;26.40;20.02;;;;;;;;;;5029721;28;20190;-74
2023/09/02 13:02:18;;;;;;;26.98;21.83;;;;;;;;;;5028489;28;20250;-74
2023/09/02 13:04:44;;;;;;;27.17;21.70;;;;;;;;;;5028660;28;20197;-74
2023/09/02 13:07:10;;;;;;;25.00;20.17;;;;;;;;;;5026298;28;20197;-73
2023/09/02 13:09:35;;;;;;;24.75;20.15;;;;;;;;;;5028462;28;20617;-73
2023/09/02 13:12:02;;;;;;;28.48;21.13;;;;;;;;;;5021393;28;21473;-73
2023/09/02 13:14:30;;;;;;;25.20;20.48;;;;;;;;;;5018979;28;20252;-73
2023/09/02 13:16:57;;;;;;;25.85;20.67;;;;;;;;;;5024469;28;20259;-74
2023/09/02 13:19:23;;;;;;;29.23;21.95;;;;;;;;;;5029664;28;20221;-73
2023/09/02 13:21:48;;;;;;;32.63;22.52;;;;;;;;;;5027197;28;20236;-73
2023/09/02 13:24:16;;;;;;;27.33;21.10;;;;;;;;;;5028641;28;20189;-74
2023/09/02 13:26:46;;;;;;;30.15;22.10;;;;;;;;;;5022123;28;20221;-74
2023/09/02 13:29:15;;;;;;;27.73;21.15;;;;;;;;;;5020271;28;20768;-74
2023/09/02 13:31:43;;;;;;;31.17;22.48;;;;;;;;;;5023333;28;20186;-74
2023/09/02 13:34:28;;;;;;;29.70;21.85;;;;;;;;;;5022875;28;20202;-73
2023/09/02 13:37:18;;;;;;;29.27;19.88;;;;;;;;;;4999360;28;20209;-74
2023/09/02 13:39:45;;;;;;;25.60;18.00;;;;;;;;;;5025841;28;20190;-74
2023/09/02 13:42:19;;;;;;;21.85;16.20;;;;;;;;;;5021160;28;20529;-74
2023/09/02 13:44:46;;;;;;;23.77;16.27;;;;;;;;;;5026129;28;20640;-74
2023/09/02 13:47:14;;;;;;;22.58;16.42;;;;;;;;;;5009867;28;20218;-74
2023/09/02 13:49:41;;;;;;;24.95;16.85;;;;;;;;;;5022693;28;20194;-73
2023/09/02 13:52:10;;;;;;;23.45;16.92;;;;;;;;;;5023987;28;20190;-74
2023/09/02 13:54:36;;;;;;;24.02;16.58;;;;;;;;;;5030512;28;20199;-73
2023/09/02 13:57:02;;;;;;;21.90;14.82;;;;;;;;;;5023618;28;20509;-73
2023/09/02 13:59:28;;;;;;;22.05;14.13;;;;;;;;;;5040765;28;20187;-74
2023/09/02 14:01:53;;;;;;;20.40;14.02;;;;;;;;;;5008679;28;20197;-73
2023/09/02 14:04:19;;;;;;;18.20;13.20;;;;;;;;;;5027890;28;20210;-74
2023/09/02 14:06:44;;;;;;;16.88;12.07;;;;;;;;;;5026407;28;20193;-73
2023/09/02 14:09:22;;;;;;;16.33;11.70;;;;;;;;;;5024942;28;20210;-74
2023/09/02 14:11:48;;;;;;;20.05;13.93;;;;;;;;;;5021301;28;20187;-73
2023/09/02 14:14:20;;;;;;;17.52;11.75;;;;;;;;;;5027918;28;20387;-74
2023/09/02 14:16:45;;;;;;;16.85;11.32;;;;;;;;;;4998152;28;20194;-73
2023/09/02 14:19:11;;;;;;;18.13;12.15;;;;;;;;;;5016504;28;20549;-73